Galesburg, Kansas
Current Conditions -  °F | °C
As of 9:52 AM on Friday 19 Dec 2014 (Local Time) from KPPF Reporting Station
Haze Haze  
Wind Chill: 33°   Ceiling: 600
Heat Index: 37°   Visibility: 6mi
Dew Point: 34°   Wind: 5mph
Humidity: 89%   Direction: 20°NNE
Pressure: 30.28"   Gusts: NA
Location:  37.47°N, 95.36°W
Report Text: KPPF 191552Z AUTO 02004KT 6SM BR OVC006 03/01 A3028 RMK AO2 SLP258 T00280011
Loading
Personal Weather Stations






























Interactive Weather Map New forecast layout! Learn more

10-Day Weather Forecast

Advertisements
Track Severe Weather on mobile